createdAt,value
2023-03-29T00:00:39.025Z,101070.13
2023-03-29T00:03:06.278Z,101077.25
2023-03-29T00:05:36.476Z,101084.09
2023-03-29T00:08:04.702Z,101064.81
2023-03-29T00:10:34.013Z,101062.72
2023-03-29T00:13:01.993Z,101060.81
2023-03-29T00:15:29.129Z,101058.94
2023-03-29T00:17:56.451Z,101061.97
2023-03-29T00:20:23.759Z,101053.94
2023-03-29T00:22:51.239Z,101050.44
2023-03-29T00:25:18.399Z,101045.81
2023-03-29T00:27:45.523Z,101053.38
2023-03-29T00:30:15.545Z,101056.19
2023-03-29T00:32:43.170Z,101053.88
2023-03-29T00:35:11.357Z,101051.78
2023-03-29T00:37:38.662Z,101052.09
2023-03-29T00:40:12.557Z,101038.75
2023-03-29T00:42:39.718Z,101040.94
2023-03-29T00:45:12.812Z,101032.22
2023-03-29T00:47:53.283Z,101033.66
2023-03-29T00:50:32.902Z,101037.00
2023-03-29T00:53:10.148Z,101042.91
2023-03-29T00:55:46.259Z,101032.09
2023-03-29T00:58:18.503Z,101034.88
2023-03-29T01:00:53.236Z,101035.53
2023-03-29T01:03:25.341Z,101043.44
2023-03-29T01:06:00.503Z,101044.97
2023-03-29T01:08:35.053Z,101034.63
2023-03-29T01:11:15.469Z,101038.69
2023-03-29T01:14:03.894Z,101022.56
2023-03-29T01:16:38.588Z,101018.13
2023-03-29T01:19:15.351Z,101016.06
2023-03-29T01:21:52.676Z,101003.75
2023-03-29T01:24:26.295Z,101007.59
2023-03-29T01:27:16.186Z,101008.06
2023-03-29T01:29:49.224Z,101011.41
2023-03-29T01:32:31.100Z,101006.25
2023-03-29T01:35:01.357Z,101002.22
2023-03-29T01:37:40.678Z,101003.97
2023-03-29T01:40:08.422Z,100997.56
2023-03-29T01:42:51.771Z,100995.59
2023-03-29T01:45:51.960Z,100989.53
2023-03-29T01:48:37.478Z,100993.72
2023-03-29T01:51:24.410Z,100989.09
2023-03-29T01:54:09.811Z,100988.72
2023-03-29T01:56:44.290Z,100977.69
2023-03-29T01:59:17.527Z,100979.31
2023-03-29T02:01:52.626Z,100982.00
2023-03-29T02:04:31.888Z,100974.56
2023-03-29T02:07:01.951Z,100966.19
2023-03-29T02:09:36.724Z,100970.16
2023-03-29T02:12:07.221Z,100978.28
2023-03-29T02:14:35.456Z,100960.69
2023-03-29T02:17:32.298Z,100949.91
2023-03-29T02:20:15.395Z,100942.47
2023-03-29T02:23:01.951Z,100934.94
2023-03-29T02:25:36.221Z,100941.22
2023-03-29T02:28:06.142Z,100940.72
2023-03-29T02:30:40.158Z,100933.88
2023-03-29T02:33:36.188Z,100932.25
2023-03-29T02:36:17.978Z,100939.81
2023-03-29T02:38:46.557Z,100933.19
2023-03-29T02:41:14.566Z,100933.41
2023-03-29T02:43:43.700Z,100922.13
2023-03-29T02:46:13.468Z,100916.81
2023-03-29T02:48:41.136Z,100916.31
2023-03-29T02:51:30.086Z,100924.09
2023-03-29T02:54:11.742Z,100928.16
2023-03-29T02:56:51.219Z,100925.25
2023-03-29T02:59:25.024Z,100916.66
2023-03-29T03:01:53.682Z,100920.41
2023-03-29T03:04:25.909Z,100912.38
2023-03-29T03:06:53.938Z,100911.44
2023-03-29T03:09:21.639Z,100903.28
2023-03-29T03:11:49.166Z,100903.06
2023-03-29T03:14:25.063Z,100910.84
2023-03-29T03:16:55.650Z,100905.03
2023-03-29T03:19:24.643Z,100904.44
2023-03-29T03:21:58.477Z,100899.00
2023-03-29T03:24:29.238Z,100901.69
2023-03-29T03:26:58.397Z,100905.19
2023-03-29T03:29:26.394Z,100903.41
2023-03-29T03:32:17.447Z,100895.44
2023-03-29T03:34:53.558Z,100891.81
2023-03-29T03:37:24.203Z,100895.44
2023-03-29T03:39:54.785Z,100896.50
2023-03-29T03:42:24.098Z,100893.22
2023-03-29T03:44:54.658Z,100892.06
2023-03-29T03:47:42.360Z,100886.81
2023-03-29T03:50:20.960Z,100892.78
2023-03-29T03:52:52.460Z,100887.44
2023-03-29T03:55:25.398Z,100886.72
2023-03-29T03:58:15.020Z,100890.09
2023-03-29T04:00:43.020Z,100891.25
2023-03-29T04:03:28.642Z,100886.94
2023-03-29T04:05:56.264Z,100887.53
2023-03-29T04:08:27.572Z,100882.06
2023-03-29T04:11:20.964Z,100895.50
2023-03-29T04:13:49.328Z,100892.50
2023-03-29T04:16:31.088Z,100888.78
2023-03-29T04:19:11.244Z,100894.13
2023-03-29T04:21:43.261Z,100885.75
2023-03-29T04:24:10.655Z,100882.75
2023-03-29T04:26:40.741Z,100892.63
2023-03-29T04:29:15.478Z,100896.69
2023-03-29T04:31:47.722Z,100884.94
2023-03-29T04:34:43.134Z,100889.69
2023-03-29T04:37:10.909Z,100892.84
2023-03-29T04:39:39.559Z,100894.22
2023-03-29T04:42:09.231Z,100892.38
2023-03-29T04:44:40.232Z,100887.16
2023-03-29T04:47:11.940Z,100886.25
2023-03-29T04:49:39.227Z,100889.03
2023-03-29T04:52:11.547Z,100886.69
2023-03-29T04:54:38.613Z,100891.34
2023-03-29T04:57:19.094Z,100880.56
2023-03-29T04:59:56.003Z,100887.19
2023-03-29T05:02:49.498Z,100875.69
2023-03-29T05:05:16.951Z,100882.28
2023-03-29T05:07:48.169Z,100887.78
2023-03-29T05:10:18.295Z,100892.06
2023-03-29T05:12:45.813Z,100895.66
2023-03-29T05:15:13.586Z,100891.81
2023-03-29T05:17:40.978Z,100892.28
2023-03-29T05:20:12.833Z,100889.41
2023-03-29T05:22:42.753Z,100895.09
2023-03-29T05:25:14.159Z,100895.78
2023-03-29T05:27:43.537Z,100896.00
2023-03-29T05:30:11.737Z,100898.31
2023-03-29T05:33:01.755Z,100897.72
2023-03-29T05:35:30.083Z,100899.94
2023-03-29T05:37:58.252Z,100892.03
2023-03-29T05:40:26.349Z,100896.34
2023-03-29T05:43:16.629Z,100905.06
2023-03-29T05:45:44.006Z,100909.00
2023-03-29T05:48:19.972Z,100891.59
2023-03-29T05:50:52.408Z,100885.78
2023-03-29T05:53:22.786Z,100884.16
2023-03-29T05:55:51.319Z,100896.59
2023-03-29T05:58:21.777Z,100893.69
2023-03-29T06:00:49.968Z,100894.72
2023-03-29T06:03:34.038Z,100893.34
2023-03-29T06:06:04.355Z,100896.47
2023-03-29T06:08:35.276Z,100898.69
2023-03-29T06:11:13.942Z,100904.63
2023-03-29T06:13:59.989Z,100909.72
2023-03-29T06:16:29.445Z,100911.69
2023-03-29T06:18:57.317Z,100910.19
2023-03-29T06:21:29.313Z,100909.50
2023-03-29T06:24:00.447Z,100907.34
2023-03-29T06:26:33.253Z,100906.19
2023-03-29T06:29:04.431Z,100914.97
2023-03-29T06:31:36.526Z,100911.06
2023-03-29T06:34:08.993Z,100906.00
2023-03-29T06:36:41.262Z,100906.09
2023-03-29T06:39:09.189Z,100901.97
2023-03-29T06:41:57.056Z,100905.88
2023-03-29T06:44:48.334Z,100907.28
2023-03-29T06:47:20.281Z,100909.78
2023-03-29T06:49:47.671Z,100915.00
2023-03-29T06:52:31.369Z,100918.38
2023-03-29T06:54:58.579Z,100917.16
2023-03-29T06:57:27.731Z,100930.59
2023-03-29T06:59:57.980Z,100922.47
2023-03-29T07:02:50.536Z,100922.75
2023-03-29T07:05:18.626Z,100918.28
2023-03-29T07:08:05.549Z,100923.25
2023-03-29T07:10:53.591Z,100914.75
2023-03-29T07:13:42.750Z,100921.88
2023-03-29T07:16:17.523Z,100919.28
2023-03-29T07:18:51.681Z,100921.03
2023-03-29T07:21:37.851Z,100911.69
2023-03-29T07:24:07.011Z,100917.44
2023-03-29T07:26:35.760Z,100918.09
2023-03-29T07:29:06.699Z,100922.91
2023-03-29T07:31:36.462Z,100921.88
2023-03-29T07:34:24.545Z,100931.16
2023-03-29T07:36:52.237Z,100927.44
2023-03-29T07:39:20.615Z,100931.53
2023-03-29T07:42:07.282Z,100939.44
2023-03-29T07:44:37.513Z,100928.09
2023-03-29T07:47:10.750Z,100925.34
2023-03-29T07:49:38.847Z,100924.28
2023-03-29T07:52:32.301Z,100929.25
2023-03-29T07:54:59.514Z,100927.19
2023-03-29T07:57:38.858Z,100928.91
2023-03-29T08:00:16.358Z,100926.88
2023-03-29T08:02:52.981Z,100935.50
2023-03-29T08:05:37.724Z,100938.75
2023-03-29T08:08:10.838Z,100940.38
2023-03-29T08:11:06.899Z,100938.50
2023-03-29T08:13:43.692Z,100934.19
2023-03-29T08:16:39.716Z,100932.81
2023-03-29T08:19:12.070Z,100925.91
2023-03-29T08:21:52.189Z,100924.84
2023-03-29T08:24:21.711Z,100925.91
2023-03-29T08:26:53.813Z,100932.94
2023-03-29T08:29:21.214Z,100929.41
2023-03-29T08:31:49.284Z,100933.72
2023-03-29T08:34:17.532Z,100929.88
2023-03-29T08:37:11.231Z,100929.03
2023-03-29T08:39:43.450Z,100930.97
2023-03-29T08:42:46.911Z,100916.19
2023-03-29T08:45:26.803Z,100921.56
2023-03-29T08:48:03.172Z,100918.63
2023-03-29T08:50:48.113Z,100916.88
2023-03-29T08:53:27.411Z,100920.75
2023-03-29T08:56:27.005Z,100922.59
2023-03-29T08:59:34.620Z,100920.19
2023-03-29T09:02:17.736Z,100922.34
2023-03-29T09:04:49.024Z,100928.81
2023-03-29T09:07:40.416Z,100926.09
2023-03-29T09:10:15.298Z,100929.19
2023-03-29T09:13:07.739Z,100933.28
2023-03-29T09:16:07.482Z,100930.13
2023-03-29T09:19:10.866Z,100931.69
2023-03-29T09:22:06.277Z,100933.41
2023-03-29T09:24:54.268Z,100920.09
2023-03-29T09:27:28.915Z,100917.13
2023-03-29T09:30:41.929Z,100919.84
2023-03-29T09:33:32.267Z,100917.09
2023-03-29T09:36:31.914Z,100917.63
2023-03-29T09:38:59.977Z,100902.78
2023-03-29T09:41:41.833Z,100906.41
2023-03-29T09:44:30.339Z,100914.81
2023-03-29T09:47:28.172Z,100921.34
2023-03-29T09:50:03.248Z,100921.09
2023-03-29T09:52:31.812Z,100904.19
2023-03-29T09:55:08.050Z,100898.41
2023-03-29T09:58:06.191Z,100898.22
2023-03-29T10:00:40.352Z,100889.91
2023-03-29T10:03:10.174Z,100894.00
2023-03-29T10:05:50.392Z,100900.53
2023-03-29T10:08:30.765Z,100886.78
2023-03-29T10:11:02.460Z,100880.59
2023-03-29T10:13:33.152Z,100875.75
2023-03-29T10:16:09.417Z,100875.13
2023-03-29T10:18:42.104Z,100872.75
2023-03-29T10:21:16.009Z,100867.63
2023-03-29T10:23:44.610Z,100856.78
2023-03-29T10:26:29.861Z,100851.75
2023-03-29T10:29:00.553Z,100849.97
2023-03-29T10:31:33.878Z,100843.72
2023-03-29T10:34:05.413Z,100852.06
2023-03-29T10:36:33.614Z,100852.38
2023-03-29T10:39:06.030Z,100846.13
2023-03-29T10:41:40.740Z,100837.66
2023-03-29T10:44:35.292Z,100829.22
2023-03-29T10:47:34.714Z,100839.19
2023-03-29T10:50:07.797Z,100834.66
2023-03-29T10:52:34.944Z,100839.63
2023-03-29T10:55:04.753Z,100826.91
2023-03-29T10:57:46.869Z,100816.75
2023-03-29T11:00:37.450Z,100814.56
2023-03-29T11:03:35.455Z,100821.06
2023-03-29T11:06:33.396Z,100814.84
2023-03-29T11:09:08.422Z,100803.22
2023-03-29T11:12:08.561Z,100806.84
2023-03-29T11:14:57.083Z,100801.25
2023-03-29T11:17:34.356Z,100807.81
2023-03-29T11:20:12.879Z,100800.34
2023-03-29T11:22:49.205Z,100788.31
2023-03-29T11:25:48.369Z,100800.81
2023-03-29T11:28:32.305Z,100792.94
2023-03-29T11:31:11.936Z,100788.50
2023-03-29T11:33:38.946Z,100782.66
2023-03-29T11:36:39.773Z,100782.41
2023-03-29T11:39:34.344Z,100792.19
2023-03-29T11:42:21.421Z,100797.59
2023-03-29T11:45:00.032Z,100789.34
2023-03-29T11:47:39.062Z,100786.72
2023-03-29T11:50:16.822Z,100778.97
2023-03-29T11:52:50.630Z,100780.25
2023-03-29T11:55:29.671Z,100759.81
2023-03-29T11:58:11.446Z,100775.66
2023-03-29T12:01:04.464Z,100764.19
2023-03-29T12:03:47.355Z,100758.53
2023-03-29T12:06:22.730Z,100750.59
2023-03-29T12:09:02.380Z,100750.91
2023-03-29T12:11:40.718Z,100743.28
2023-03-29T12:14:28.062Z,100741.25
2023-03-29T12:17:02.244Z,100725.41
2023-03-29T12:19:41.020Z,100724.28
2023-03-29T12:22:11.311Z,100723.63
2023-03-29T12:24:47.101Z,100729.63
2023-03-29T12:27:37.843Z,100728.25
2023-03-29T12:30:32.545Z,100732.50
2023-03-29T12:33:31.854Z,100733.72
2023-03-29T12:36:41.513Z,100726.72
2023-03-29T12:39:37.466Z,100723.44
2023-03-29T12:42:24.215Z,100725.75
2023-03-29T12:45:34.193Z,100727.16
2023-03-29T12:48:02.120Z,100725.63
2023-03-29T12:50:37.023Z,100723.00
2023-03-29T12:53:22.133Z,100715.03
2023-03-29T12:55:55.308Z,100716.66
2023-03-29T12:58:41.960Z,100705.66
2023-03-29T13:01:29.696Z,100705.44
2023-03-29T13:04:10.976Z,100699.84
2023-03-29T13:06:56.353Z,100688.88
2023-03-29T13:09:23.117Z,100695.00
2023-03-29T13:11:54.233Z,100695.66
2023-03-29T13:14:26.108Z,100684.72
2023-03-29T13:16:55.198Z,100677.31
2023-03-29T13:19:38.541Z,100678.13
2023-03-29T13:22:19.051Z,100678.94
2023-03-29T13:25:07.195Z,100681.34
2023-03-29T13:27:43.846Z,100674.97
2023-03-29T13:30:32.955Z,100679.38
2023-03-29T13:33:15.697Z,100682.78
2023-03-29T13:36:03.304Z,100684.13
2023-03-29T13:38:35.165Z,100687.19
2023-03-29T13:41:07.492Z,100677.44
2023-03-29T13:43:37.913Z,100676.94
2023-03-29T13:46:24.820Z,100679.75
2023-03-29T13:49:22.217Z,100676.34
2023-03-29T13:55:04.623Z,100677.56
2023-03-29T13:57:33.943Z,100668.00
2023-03-29T14:00:11.987Z,100658.22
2023-03-29T14:02:49.430Z,100656.28
2023-03-29T14:05:28.886Z,100662.50
2023-03-29T14:07:57.052Z,100672.94
2023-03-29T14:10:35.154Z,100674.06
2023-03-29T14:13:07.496Z,100655.06
2023-03-29T14:15:55.468Z,100648.78
2023-03-29T14:18:25.702Z,100632.28
2023-03-29T14:20:55.578Z,100636.59
2023-03-29T14:23:30.161Z,100632.63
2023-03-29T14:26:08.003Z,100624.88
2023-03-29T14:28:35.465Z,100624.34
2023-03-29T14:31:02.569Z,100630.00
2023-03-29T14:33:38.633Z,100632.63
2023-03-29T14:36:06.749Z,100637.41
2023-03-29T14:38:37.627Z,100644.94
2023-03-29T14:41:06.182Z,100632.91
2023-03-29T14:43:33.566Z,100650.81
2023-03-29T14:46:04.890Z,100636.19
2023-03-29T14:48:35.890Z,100632.28
2023-03-29T14:51:06.600Z,100621.50
2023-03-29T14:53:37.442Z,100619.88
2023-03-29T14:56:06.979Z,100617.50
2023-03-29T14:58:36.537Z,100616.50
2023-03-29T15:01:08.005Z,100608.56
2023-03-29T15:03:57.083Z,100611.13
2023-03-29T15:06:26.429Z,100594.56
2023-03-29T15:09:04.335Z,100591.34
2023-03-29T15:11:34.588Z,100597.88
2023-03-29T15:14:01.827Z,100597.31
2023-03-29T15:16:30.752Z,100597.25
2023-03-29T15:18:58.735Z,100595.59
2023-03-29T15:21:35.472Z,100592.19
2023-03-29T15:24:04.365Z,100590.63
2023-03-29T15:26:37.377Z,100590.66
2023-03-29T15:29:25.711Z,100590.19
2023-03-29T15:31:57.987Z,100599.50
2023-03-29T15:34:27.928Z,100601.69
2023-03-29T15:36:59.096Z,100594.34
2023-03-29T15:39:31.017Z,100591.50
2023-03-29T15:41:59.272Z,100592.00
2023-03-29T15:44:33.808Z,100593.25
2023-03-29T15:47:02.773Z,100592.03
2023-03-29T15:49:30.314Z,100587.06
2023-03-29T15:51:58.636Z,100592.00
2023-03-29T15:54:26.742Z,100591.78
2023-03-29T15:57:03.621Z,100589.31
2023-03-29T15:59:32.034Z,100586.69
2023-03-29T16:02:02.964Z,100585.31
2023-03-29T16:04:33.001Z,100590.81
2023-03-29T16:07:16.244Z,100591.59
2023-03-29T16:09:44.299Z,100598.66
2023-03-29T16:12:12.628Z,100585.25
2023-03-29T16:14:43.312Z,100589.38
2023-03-29T16:17:14.937Z,100581.88
2023-03-29T16:19:45.487Z,100586.63
2023-03-29T16:22:23.806Z,100582.91
2023-03-29T16:24:51.713Z,100579.78
2023-03-29T16:27:21.634Z,100580.03
2023-03-29T16:29:49.219Z,100578.97
2023-03-29T16:32:17.124Z,100577.97
2023-03-29T16:34:50.120Z,100560.41
2023-03-29T16:37:18.352Z,100553.19
2023-03-29T16:39:49.617Z,100548.06
2023-03-29T16:42:25.946Z,100548.16
2023-03-29T16:45:00.807Z,100551.56
2023-03-29T16:47:28.336Z,100540.66
2023-03-29T16:49:55.727Z,100552.19
2023-03-29T16:52:23.789Z,100541.25
2023-03-29T16:54:56.975Z,100536.91
2023-03-29T16:57:27.320Z,100537.28
2023-03-29T16:59:56.415Z,100539.06
2023-03-29T17:02:26.945Z,100542.25
2023-03-29T17:04:57.708Z,100528.38
2023-03-29T17:07:29.939Z,100522.56
2023-03-29T17:09:57.942Z,100518.44
2023-03-29T17:12:25.056Z,100528.25
2023-03-29T17:14:55.818Z,100530.97
2023-03-29T17:17:23.527Z,100534.09
2023-03-29T17:19:50.414Z,100527.94
2023-03-29T17:22:21.251Z,100537.28
2023-03-29T17:24:53.425Z,100524.53
2023-03-29T17:27:22.031Z,100520.53
2023-03-29T17:29:55.138Z,100511.34
2023-03-29T17:32:32.867Z,100511.50
2023-03-29T17:35:00.473Z,100516.84
2023-03-29T17:37:28.832Z,100520.03
2023-03-29T17:39:56.162Z,100519.03
2023-03-29T17:42:25.760Z,100522.84
2023-03-29T17:44:53.487Z,100518.75
2023-03-29T17:47:20.877Z,100514.28
2023-03-29T17:49:48.472Z,100506.28
2023-03-29T17:52:16.097Z,100501.09
2023-03-29T17:54:42.890Z,100501.44
2023-03-29T17:57:09.848Z,100506.13
2023-03-29T17:59:38.347Z,100503.72
2023-03-29T18:02:06.141Z,100508.59
2023-03-29T18:04:34.457Z,100509.19
2023-03-29T18:07:01.518Z,100511.38
2023-03-29T18:09:30.716Z,100501.94
2023-03-29T18:11:58.807Z,100504.50
2023-03-29T18:14:26.827Z,100502.66
2023-03-29T18:16:54.063Z,100510.38
2023-03-29T18:19:21.528Z,100513.38
2023-03-29T18:21:49.344Z,100510.75
2023-03-29T18:24:20.273Z,100508.31
2023-03-29T18:26:47.403Z,100505.34
2023-03-29T18:29:16.023Z,100502.72
2023-03-29T18:31:47.028Z,100505.50
2023-03-29T18:34:15.075Z,100513.38
2023-03-29T18:36:42.734Z,100507.97
2023-03-29T18:39:11.300Z,100506.41
2023-03-29T18:41:40.914Z,100509.19
2023-03-29T18:44:16.444Z,100513.47
2023-03-29T18:46:43.509Z,100516.34
2023-03-29T18:49:13.177Z,100519.06
2023-03-29T18:51:40.299Z,100516.34
2023-03-29T18:54:08.971Z,100507.72
2023-03-29T18:56:36.041Z,100508.28
2023-03-29T18:59:06.156Z,100498.09
2023-03-29T19:01:34.818Z,100496.47
2023-03-29T19:04:01.837Z,100501.56
2023-03-29T19:06:28.779Z,100497.31
2023-03-29T19:08:58.239Z,100494.91
2023-03-29T19:11:28.364Z,100492.78
2023-03-29T19:13:59.103Z,100492.50
2023-03-29T19:16:27.562Z,100487.94
2023-03-29T19:18:54.960Z,100484.22
2023-03-29T19:21:24.393Z,100477.72
2023-03-29T19:23:53.090Z,100476.59
2023-03-29T19:26:20.093Z,100466.25
2023-03-29T19:28:47.033Z,100468.66
2023-03-29T19:31:20.058Z,100468.91
2023-03-29T19:33:46.989Z,100459.16
2023-03-29T19:36:14.200Z,100463.41
2023-03-29T19:38:41.616Z,100448.75
2023-03-29T19:41:09.058Z,100447.13
2023-03-29T19:43:36.385Z,100447.19
2023-03-29T19:46:11.803Z,100434.78
2023-03-29T19:48:40.415Z,100422.16
2023-03-29T19:51:08.894Z,100428.19
2023-03-29T19:53:38.462Z,100422.50
2023-03-29T19:56:07.738Z,100422.50
2023-03-29T19:58:39.385Z,100419.53
2023-03-29T20:01:06.589Z,100411.13
2023-03-29T20:03:34.370Z,100414.34
2023-03-29T20:06:02.028Z,100408.38
2023-03-29T20:08:29.117Z,100405.59
2023-03-29T20:11:02.157Z,100392.09
2023-03-29T20:13:38.344Z,100387.81
2023-03-29T20:16:16.289Z,100393.66
2023-03-29T20:18:47.004Z,100384.47
2023-03-29T20:21:17.064Z,100392.84
2023-03-29T20:23:44.301Z,100379.13
2023-03-29T20:26:11.391Z,100367.81
2023-03-29T20:28:38.380Z,100369.44
2023-03-29T20:31:11.304Z,100368.41
2023-03-29T20:33:39.046Z,100366.22
2023-03-29T20:36:12.661Z,100360.47
2023-03-29T20:38:39.861Z,100358.50
2023-03-29T20:41:09.435Z,100366.53
2023-03-29T20:43:41.221Z,100357.63
2023-03-29T20:46:18.278Z,100345.06
2023-03-29T20:48:54.689Z,100348.28
2023-03-29T20:51:33.041Z,100337.19
2023-03-29T20:54:05.106Z,100343.91
2023-03-29T20:56:34.338Z,100347.63
2023-03-29T20:59:01.850Z,100336.53
2023-03-29T21:01:30.093Z,100331.69
2023-03-29T21:03:57.262Z,100320.69
2023-03-29T21:06:24.793Z,100324.47
2023-03-29T21:08:52.630Z,100334.25
2023-03-29T21:11:20.963Z,100330.47
2023-03-29T21:13:49.269Z,100327.25
2023-03-29T21:16:19.876Z,100320.25
2023-03-29T21:18:47.454Z,100326.25
2023-03-29T21:21:17.263Z,100321.41
2023-03-29T21:23:43.946Z,100318.00
2023-03-29T21:26:10.681Z,100311.25
2023-03-29T21:28:37.750Z,100306.72
2023-03-29T21:31:06.225Z,100298.91
2023-03-29T21:33:34.253Z,100299.50
2023-03-29T21:36:01.304Z,100290.91
2023-03-29T21:38:28.732Z,100296.88
2023-03-29T21:40:55.912Z,100294.69
2023-03-29T21:43:22.953Z,100293.66
2023-03-29T21:45:50.375Z,100296.88
2023-03-29T21:48:18.005Z,100296.88
2023-03-29T21:50:49.019Z,100296.88
2023-03-29T21:53:16.147Z,100294.69
2023-03-29T21:55:43.912Z,100294.47
2023-03-29T21:58:11.903Z,100295.28
2023-03-29T22:00:38.607Z,100292.50
2023-03-29T22:03:06.303Z,100292.28
2023-03-29T22:05:33.265Z,100287.69
2023-03-29T22:08:00.379Z,100295.72
2023-03-29T22:10:27.541Z,100289.16
2023-03-29T22:12:54.298Z,100282.59
2023-03-29T22:15:21.123Z,100286.41
2023-03-29T22:17:48.379Z,100281.00
2023-03-29T22:20:15.598Z,100284.72
2023-03-29T22:22:49.904Z,100291.66
2023-03-29T22:25:18.708Z,100292.69
2023-03-29T22:27:47.569Z,100286.69
2023-03-29T22:30:15.998Z,100295.28
2023-03-29T22:32:43.270Z,100285.66
2023-03-29T22:35:10.709Z,100294.28
2023-03-29T22:37:43.152Z,100293.69
2023-03-29T22:40:11.474Z,100284.50
2023-03-29T22:42:38.403Z,100286.13
2023-03-29T22:45:06.554Z,100281.19
2023-03-29T22:47:35.546Z,100293.00
2023-03-29T22:50:02.539Z,100296.22
2023-03-29T22:52:29.265Z,100284.84
2023-03-29T22:54:55.959Z,100278.66
2023-03-29T22:57:22.744Z,100298.34
2023-03-29T22:59:49.516Z,100311.34
2023-03-29T23:02:16.289Z,100301.94
2023-03-29T23:04:45.389Z,100296.03
2023-03-29T23:07:12.308Z,100294.91
2023-03-29T23:09:38.957Z,100307.84
2023-03-29T23:12:05.810Z,100289.75
2023-03-29T23:14:33.752Z,100283.75
2023-03-29T23:17:00.488Z,100278.34
2023-03-29T23:19:27.214Z,100277.84
2023-03-29T23:21:55.162Z,100280.75
2023-03-29T23:24:21.896Z,100277.31
2023-03-29T23:26:49.232Z,100271.91
2023-03-29T23:29:16.316Z,100250.53
2023-03-29T23:31:44.312Z,100240.53
2023-03-29T23:34:13.613Z,100223.75
2023-03-29T23:36:40.849Z,100227.28
2023-03-29T23:39:08.278Z,100229.63
2023-03-29T23:41:36.227Z,100212.84
2023-03-29T23:44:04.474Z,100206.81
2023-03-29T23:46:33.846Z,100206.59
2023-03-29T23:49:00.689Z,100219.28
2023-03-29T23:51:30.619Z,100224.88
2023-03-29T23:53:58.699Z,100216.22
2023-03-29T23:56:25.470Z,100223.22
2023-03-29T23:58:52.322Z,100221.31
